Time;durP1;ratioP1;P1;durP2;ratioP2;P2;SDS_P1;SDS_P2;PMS_P1;PMS_P2;Temp;Humidity;BMP_temperature;BMP_pressure;BME280_temperature;BME280_humidity;BME280_pressure;Samples;Min_cycle;Max_cycle;Signal;HPM_P1;HPM_P2
2021/12/25 00:01:52;;;;;;;12.43;6.10;;;;;;;1.28;100.00;95477.25;5071401;28;20520;-64
2021/12/25 00:04:19;;;;;;;11.10;5.43;;;;;;;1.33;100.00;95472.56;5071915;28;20044;-64
2021/12/25 00:06:46;;;;;;;9.97;5.03;;;;;;;1.33;100.00;95472.56;5072371;28;20527;-64
2021/12/25 00:09:14;;;;;;;7.77;4.93;;;;;;;1.36;100.00;95485.31;5071141;28;20074;-63
2021/12/25 00:11:41;;;;;;;7.90;5.30;;;;;;;1.35;100.00;95474.16;5070298;28;20047;-65
2021/12/25 00:14:12;;;;;;;13.60;6.27;;;;;;;1.36;100.00;95477.53;5071286;28;20477;-65
2021/12/25 00:16:40;;;;;;;9.13;5.10;;;;;;;1.40;100.00;95484.16;5071235;28;20043;-64
2021/12/25 00:19:07;;;;;;;11.63;5.80;;;;;;;1.45;100.00;95484.69;5071054;28;20132;-65
2021/12/25 00:21:35;;;;;;;10.20;6.27;;;;;;;1.53;100.00;95500.53;5071113;28;20040;-64
2021/12/25 00:24:03;;;;;;;11.37;6.03;;;;;;;1.56;100.00;95497.72;5071207;28;20496;-64
2021/12/25 00:29:48;;;;;;;10.47;6.17;;;;;;;1.63;100.00;95517.06;5066543;28;20125;-64
2021/12/25 00:32:36;;;;;;;13.20;6.70;;;;;;;1.65;100.00;95517.81;5070907;28;20047;-65
2021/12/25 00:35:03;;;;;;;13.23;6.60;;;;;;;1.51;100.00;95510.16;5070079;28;20443;-65
2021/12/25 00:37:30;;;;;;;11.70;6.67;;;;;;;1.37;100.00;95508.53;5069795;28;20047;-64
2021/12/25 00:39:57;;;;;;;12.67;6.13;;;;;;;1.40;100.00;95512.69;5070027;28;20044;-65
2021/12/25 00:42:25;;;;;;;10.13;5.77;;;;;;;1.51;100.00;95529.16;5071130;28;20048;-64
2021/12/25 00:44:53;;;;;;;10.50;5.27;;;;;;;1.60;100.00;95522.50;5071081;28;20041;-64
2021/12/25 00:47:21;;;;;;;12.37;6.80;;;;;;;1.62;100.00;95528.38;5069627;28;20114;-64
2021/12/25 00:49:48;;;;;;;11.97;6.40;;;;;;;1.63;100.00;95543.00;5070761;28;20118;-65
2021/12/25 00:52:15;;;;;;;10.70;6.57;;;;;;;1.66;100.00;95548.81;5073760;28;20041;-65
2021/12/25 00:54:42;;;;;;;10.27;5.37;;;;;;;1.70;100.00;95554.59;5074330;28;20067;-65
2021/12/25 00:57:09;;;;;;;14.07;6.93;;;;;;;1.75;100.00;95557.72;5073562;28;20385;-65
2021/12/25 00:59:37;;;;;;;15.53;7.30;;;;;;;1.76;100.00;95554.19;5074792;28;20141;-64
2021/12/25 01:02:05;;;;;;;16.10;6.97;;;;;;;1.77;100.00;95550.63;5073269;28;20155;-62
2021/12/25 01:04:32;;;;;;;12.90;7.13;;;;;;;1.77;100.00;95558.41;5057280;28;20044;-62
2021/12/25 01:06:59;;;;;;;9.83;5.17;;;;;;;1.81;100.00;95552.06;5073604;28;20147;-63
2021/12/25 01:09:26;;;;;;;16.67;8.37;;;;;;;1.82;100.00;95567.53;5075152;28;20033;-65
2021/12/25 01:11:53;;;;;;;14.37;6.97;;;;;;;1.82;100.00;95571.91;5073339;28;20142;-65
2021/12/25 01:14:31;;;;;;;13.83;6.73;;;;;;;1.83;100.00;95570.97;5073776;28;20044;-65
2021/12/25 01:17:29;;;;;;;10.63;6.40;;;;;;;1.84;100.00;95589.03;5070962;28;20123;-64
2021/12/25 01:20:27;;;;;;;15.30;7.30;;;;;;;1.81;100.00;95588.38;5073761;28;20044;-64
2021/12/25 01:31:40;;;;;;;12.73;6.83;;;;;;;1.75;100.00;95594.84;5074091;28;20064;-64
2021/12/25 01:34:59;;;;;;;12.97;6.13;;;;;;;1.70;100.00;95612.50;5071241;28;20036;-64
2021/12/25 01:37:56;;;;;;;11.17;6.97;;;;;;;1.69;100.00;95620.38;5071006;28;20056;-65
2021/12/25 01:40:52;;;;;;;11.43;6.37;;;;;;;1.68;100.00;95591.00;5074416;28;20496;-65
2021/12/25 01:49:54;;;;;;;15.67;8.50;;;;;;;1.46;100.00;95608.19;5055432;28;20048;-66
2021/12/25 01:52:26;;;;;;;14.03;6.73;;;;;;;1.40;100.00;95626.72;5073001;28;20040;-66
2021/12/25 01:54:54;;;;;;;14.67;8.00;;;;;;;1.40;100.00;95624.16;5072919;28;20599;-65
2021/12/25 01:57:22;;;;;;;14.50;7.50;;;;;;;1.35;100.00;95637.44;5073946;28;20033;-65
2021/12/25 01:59:49;;;;;;;16.63;8.60;;;;;;;1.28;100.00;95649.16;5071482;28;20041;-64
2021/12/25 02:02:17;;;;;;;19.83;8.80;;;;;;;1.20;100.00;95651.41;5070442;28;20052;-65
2021/12/25 02:04:44;;;;;;;13.23;7.67;;;;;;;1.10;100.00;95670.28;5071021;28;20146;-65
2021/12/25 02:07:13;;;;;;;13.47;7.43;;;;;;;0.93;100.00;95692.09;5072380;28;20047;-65
2021/12/25 02:09:41;;;;;;;18.27;9.67;;;;;;;0.82;100.00;95702.31;5071195;28;20080;-64
2021/12/25 02:12:10;;;;;;;11.53;6.53;;;;;;;0.60;100.00;95708.06;5071029;28;20044;-64
2021/12/25 02:14:38;;;;;;;8.00;4.87;;;;;;;0.43;100.00;95721.22;5074021;28;20052;-65
2021/12/25 02:17:16;;;;;;;5.97;3.97;;;;;;;0.19;100.00;95719.34;5072036;28;20040;-64
2021/12/25 02:19:51;;;;;;;7.87;3.47;;;;;;;0.01;100.00;95730.84;5071457;28;20036;-63
2021/12/25 02:22:19;;;;;;;4.13;3.10;;;;;;;-0.10;100.00;95747.03;5071055;28;20068;-64
2021/12/25 02:24:47;;;;;;;5.20;2.80;;;;;;;-0.23;100.00;95763.38;5072057;28;20045;-65
2021/12/25 02:27:14;;;;;;;3.77;2.53;;;;;;;-0.28;100.00;95765.38;5070845;28;20063;-64
2021/12/25 02:29:41;;;;;;;4.50;2.67;;;;;;;-0.34;100.00;95763.16;5070950;28;20041;-63
2021/12/25 02:32:11;;;;;;;4.20;2.20;;;;;;;-0.38;100.00;95761.69;5070983;28;20052;-64
2021/12/25 02:34:40;;;;;;;4.18;2.25;;;;;;;-0.47;100.00;95773.41;5071198;28;20032;-64
2021/12/25 02:37:09;;;;;;;1.60;1.20;;;;;;;-0.51;100.00;95784.84;5071141;28;20044;-65
2021/12/25 02:39:39;;;;;;;3.90;1.20;;;;;;;-0.60;100.00;95793.13;5071141;28;20495;-64
2021/12/25 02:42:06;;;;;;;2.37;1.53;;;;;;;-0.71;100.00;95798.06;5071997;28;20869;-65
2021/12/25 02:44:34;;;;;;;2.20;1.73;;;;;;;-0.76;100.00;95813.00;5071144;28;20040;-65
2021/12/25 02:47:09;;;;;;;2.87;1.63;;;;;;;-0.77;100.00;95819.09;5071087;28;20060;-65
2021/12/25 02:49:36;;;;;;;4.17;1.47;;;;;;;-0.77;100.00;95824.28;5054411;28;20060;-65
2021/12/25 02:52:06;;;;;;;3.30;2.13;;;;;;;-0.83;100.00;95831.50;5071207;28;20133;-63
2021/12/25 02:54:35;;;;;;;2.67;1.50;;;;;;;-0.88;100.00;95833.53;5070673;28;20036;-64
2021/12/25 02:57:02;;;;;;;3.53;1.80;;;;;;;-0.91;100.00;95828.53;5071691;28;20052;-64
2021/12/25 02:59:29;;;;;;;2.43;1.57;;;;;;;-0.99;100.00;95831.56;5070882;28;20033;-65
2021/12/25 03:01:56;;;;;;;2.97;2.10;;;;;;;-1.04;100.00;95840.47;5072974;28;20493;-64
2021/12/25 03:04:23;;;;;;;5.10;1.70;;;;;;;-1.03;100.00;95842.97;5071337;28;20090;-65
2021/12/25 03:06:49;;;;;;;4.57;2.00;;;;;;;-1.05;100.00;95873.19;5072035;28;20052;-65
2021/12/25 03:09:17;;;;;;;1.73;1.37;;;;;;;-1.05;100.00;95862.88;5070592;28;20048;-65
2021/12/25 03:11:45;;;;;;;1.83;1.40;;;;;;;-1.08;100.00;95865.63;5072096;28;20505;-65
2021/12/25 03:14:24;;;;;;;2.27;1.67;;;;;;;-1.03;100.00;95868.78;5070435;28;20044;-64
2021/12/25 03:16:51;;;;;;;2.67;2.07;;;;;;;-0.98;100.00;95861.63;5070284;28;20439;-64
2021/12/25 03:19:26;;;;;;;2.53;1.90;;;;;;;-0.94;100.00;95857.09;5071695;28;20045;-64
2021/12/25 03:21:53;;;;;;;3.23;1.93;;;;;;;-1.07;100.00;95871.63;5069975;28;20405;-65
2021/12/25 03:24:20;;;;;;;2.33;2.10;;;;;;;-1.10;100.00;95867.47;5071365;28;20105;-64
2021/12/25 03:26:52;;;;;;;2.87;2.10;;;;;;;-1.08;100.00;95881.09;5070790;28;20094;-65
2021/12/25 03:29:19;;;;;;;2.63;2.10;;;;;;;-1.10;100.00;95887.28;5069990;28;20063;-66
2021/12/25 03:31:46;;;;;;;2.63;2.20;;;;;;;-1.11;100.00;95885.63;5069862;28;20508;-65
2021/12/25 03:34:13;;;;;;;2.73;2.30;;;;;;;-1.06;100.00;95884.44;5069316;28;20073;-65
2021/12/25 03:36:40;;;;;;;3.90;2.87;;;;;;;-1.06;100.00;95906.84;5069857;28;20044;-66
2021/12/25 03:39:07;;;;;;;4.10;2.40;;;;;;;-1.04;100.00;95913.59;5069756;28;20059;-65
2021/12/25 03:41:34;;;;;;;4.20;2.70;;;;;;;-0.98;100.00;95920.16;5070936;28;20497;-64
2021/12/25 03:44:03;;;;;;;7.67;3.00;;;;;;;-0.92;100.00;95932.75;5069583;28;20405;-64
2021/12/25 03:46:31;;;;;;;4.83;3.13;;;;;;;-0.96;100.00;95937.25;5069808;28;20044;-64
2021/12/25 03:49:05;;;;;;;6.13;3.70;;;;;;;-0.96;100.00;95944.19;5069814;28;20090;-63
2021/12/25 03:59:56;;;;;;;5.97;3.40;;;;;;;-1.10;100.00;95957.00;5069438;28;20033;-64
2021/12/25 04:02:31;;;;;;;4.20;2.27;;;;;;;-1.12;100.00;95976.88;5069992;28;20063;-65
2021/12/25 04:05:00;;;;;;;3.83;2.70;;;;;;;-1.11;100.00;95976.78;5070240;28;20048;-65
2021/12/25 04:07:50;;;;;;;5.67;3.40;;;;;;;-1.09;100.00;95982.72;5070824;28;20059;-65
2021/12/25 04:10:17;;;;;;;5.33;3.13;;;;;;;-1.06;100.00;95966.22;5069519;28;20036;-65
2021/12/25 04:12:44;;;;;;;5.33;3.60;;;;;;;-1.12;100.00;95982.88;5069738;28;20963;-68
2021/12/25 04:15:12;;;;;;;5.53;3.23;;;;;;;-1.16;100.00;95981.38;5069941;28;20082;-69
2021/12/25 04:17:39;;;;;;;4.53;3.20;;;;;;;-1.15;100.00;95992.56;5068466;28;20043;-69
2021/12/25 04:20:07;;;;;;;5.50;3.80;;;;;;;-1.13;100.00;95982.97;5070621;28;20036;-68
2021/12/25 04:22:42;;;;;;;6.60;4.13;;;;;;;-1.17;100.00;95987.47;5069356;28;20064;-69
2021/12/25 04:25:10;;;;;;;6.70;4.03;;;;;;;-1.19;100.00;95978.13;5070131;28;20064;-69
2021/12/25 04:27:38;;;;;;;7.10;4.13;;;;;;;-1.17;100.00;95978.88;5068544;28;20052;-69
2021/12/25 04:30:19;;;;;;;5.93;4.37;;;;;;;-1.20;100.00;95997.09;5069787;28;20059;-68
2021/12/25 05:03:34;;;;;;;5.80;4.30;;;;;;;-2.17;100.00;96081.13;5059428;28;20084;-70
2021/12/25 05:06:14;;;;;;;;;;;;;;;-2.12;100.00;96073.16;5069764;28;20040;-70
2021/12/25 05:08:43;;;;;;;8.20;4.37;;;;;;;-2.09;100.00;96079.03;5068927;28;20006;-69
2021/12/25 05:11:10;;;;;;;7.80;3.83;;;;;;;-2.13;100.00;96072.34;5068096;28;20037;-71
2021/12/25 05:13:37;;;;;;;8.57;4.63;;;;;;;-2.12;100.00;96088.63;5068198;28;20070;-71
2021/12/25 05:16:04;;;;;;;10.43;5.10;;;;;;;-2.10;100.00;96098.00;5068217;28;20059;-71
2021/12/25 05:18:31;;;;;;;8.23;4.13;;;;;;;-2.16;100.00;96105.16;5069054;28;20037;-67
2021/12/25 05:20:58;;;;;;;8.43;4.60;;;;;;;-2.23;100.00;96107.19;5065831;28;20374;-66
2021/12/25 05:23:27;;;;;;;6.93;4.03;;;;;;;-2.25;100.00;96106.41;5068224;28;20041;-66
2021/12/25 05:25:56;;;;;;;7.03;3.83;;;;;;;-2.24;100.00;96115.84;5067688;28;20116;-66
2021/12/25 05:28:27;;;;;;;7.70;5.43;;;;;;;-2.35;100.00;96123.22;5068131;28;20443;-67
2021/12/25 05:30:58;;;;;;;10.63;4.93;;;;;;;-2.41;100.00;96141.53;5068272;28;20508;-66
2021/12/25 05:33:51;;;;;;;6.67;4.23;;;;;;;-2.48;100.00;96131.59;5068320;28;20162;-66
2021/12/25 05:36:34;;;;;;;;;;;;;;;-2.56;100.00;96144.81;5068318;28;20049;-66
2021/12/25 05:39:22;;;;;;;9.37;4.30;;;;;;;-2.58;100.00;96141.44;5070339;28;20444;-66
2021/12/25 05:41:50;;;;;;;9.60;5.50;;;;;;;-2.59;100.00;96133.81;5072144;28;20087;-66
2021/12/25 05:44:22;;;;;;;9.20;4.75;;;;;;;-2.67;100.00;96149.59;5071735;28;20044;-65
2021/12/25 05:47:09;;;;;;;8.13;4.40;;;;;;;-2.63;100.00;96139.97;5072273;28;20056;-66
2021/12/25 05:49:40;;;;;;;8.43;4.00;;;;;;;-2.63;100.00;96163.16;5070207;28;20044;-66
2021/12/25 05:52:14;;;;;;;;;;;;;;;-2.48;100.00;96171.06;5073213;28;20048;-65
2021/12/25 05:54:49;;;;;;;8.20;4.55;;;;;;;-2.60;100.00;96175.91;5071465;28;19921;-64
2021/12/25 05:57:51;;;;;;;8.20;4.80;;;;;;;-2.56;100.00;96178.28;5050551;28;20052;-65
2021/12/25 06:00:29;;;;;;;7.10;5.03;;;;;;;-2.57;100.00;96178.34;5068432;28;20123;-66
2021/12/25 06:02:55;;;;;;;9.57;4.50;;;;;;;-2.59;100.00;96181.00;5073662;28;20044;-66
2021/12/25 06:05:27;;;;;;;28.00;6.53;;;;;;;-2.56;100.00;96180.00;5071774;28;20075;-66
2021/12/25 06:07:54;;;;;;;9.00;5.10;;;;;;;-2.53;100.00;96185.03;5072727;28;20052;-66
2021/12/25 06:10:23;;;;;;;9.37;5.47;;;;;;;-2.50;100.00;96195.22;5071578;28;20037;-66
2021/12/25 06:12:54;;;;;;;10.87;5.20;;;;;;;-2.48;100.00;96203.72;5071541;28;20044;-66
2021/12/25 06:15:22;;;;;;;9.90;4.63;;;;;;;-2.49;100.00;96212.34;5071556;28;20090;-66
2021/12/25 06:17:58;;;;;;;11.30;5.23;;;;;;;-2.48;100.00;96208.88;5070993;28;20063;-66
2021/12/25 06:20:29;;;;;;;10.77;5.77;;;;;;;-2.46;100.00;96222.50;5071125;28;20130;-65
2021/12/25 06:23:15;;;;;;;15.43;6.47;;;;;;;-2.49;100.00;96228.63;5073056;28;20037;-65
2021/12/25 06:25:52;;;;;;;12.30;5.47;;;;;;;-2.50;100.00;96232.13;5072695;28;20138;-65
2021/12/25 06:28:29;;;;;;;10.50;5.80;;;;;;;-2.51;100.00;96245.88;5071275;28;20045;-64
2021/12/25 06:31:14;;;;;;;9.20;4.40;;;;;;;-2.58;100.00;96244.47;5072236;28;20055;-65
2021/12/25 06:33:46;;;;;;;9.73;4.80;;;;;;;-2.63;100.00;96236.13;5070339;28;20051;-64
2021/12/25 06:36:29;;;;;;;7.40;4.57;;;;;;;-2.59;100.00;96258.28;5071930;28;20071;-65
2021/12/25 06:39:12;;;;;;;11.10;5.40;;;;;;;-2.62;100.00;96266.13;5073432;28;20048;-64
2021/12/25 06:41:51;;;;;;;8.30;4.47;;;;;;;-2.64;100.00;96269.66;5070791;28;20523;-65
2021/12/25 06:44:20;;;;;;;7.57;3.70;;;;;;;-2.58;100.00;96275.38;5070827;28;20131;-65
2021/12/25 06:46:49;;;;;;;10.60;5.27;;;;;;;-2.60;100.00;96273.78;5070425;28;20052;-66
2021/12/25 06:49:16;;;;;;;8.70;4.30;;;;;;;-2.64;100.00;96274.81;5070057;28;20115;-65
2021/12/25 06:52:01;;;;;;;6.57;3.20;;;;;;;-2.67;100.00;96262.91;5071503;28;20052;-65
2021/12/25 06:54:54;;;;;;;9.57;3.83;;;;;;;-2.67;100.00;96280.09;5070237;28;20071;-65
2021/12/25 06:57:32;;;;;;;6.97;3.43;;;;;;;-2.64;100.00;96275.66;5071465;28;20032;-64
2021/12/25 07:00:00;;;;;;;10.73;4.47;;;;;;;-2.59;100.00;96278.88;5069542;28;20053;-66
2021/12/25 07:02:27;;;;;;;7.53;3.73;;;;;;;-2.50;100.00;96282.81;5070037;28;20048;-68
2021/12/25 07:05:17;;;;;;;5.73;3.40;;;;;;;-2.53;100.00;96296.66;5061232;28;20052;-68
2021/12/25 07:08:03;;;;;;;7.33;3.83;;;;;;;-2.55;100.00;96288.16;5072775;28;20524;-66
2021/12/25 07:10:44;;;;;;;7.00;3.77;;;;;;;-2.57;100.00;96302.00;5069899;28;20060;-65
2021/12/25 07:13:34;;;;;;;8.13;3.83;;;;;;;-2.64;100.00;96308.31;5069359;28;20040;-67
2021/12/25 07:16:21;;;;;;;9.07;4.53;;;;;;;-2.69;100.00;96303.34;5059450;28;20064;-65
2021/12/25 07:19:07;;;;;;;9.50;5.40;;;;;;;-2.72;100.00;96309.47;5069813;28;20072;-67
2021/12/25 07:21:54;;;;;;;11.10;5.30;;;;;;;-2.83;100.00;96327.09;5059941;28;20062;-71
2021/12/25 07:24:39;;;;;;;7.40;4.70;;;;;;;-2.95;100.00;96316.44;5071862;28;20052;-71
2021/12/25 07:27:32;;;;;;;8.20;4.07;;;;;;;-3.05;100.00;96310.84;5072031;28;20063;-72
2021/12/25 07:30:02;;;;;;;6.70;4.10;;;;;;;-3.07;100.00;96306.66;5070657;28;20044;-70
2021/12/25 07:32:29;;;;;;;7.83;4.27;;;;;;;-3.15;100.00;96313.84;5071179;28;20557;-71
2021/12/25 07:34:56;;;;;;;8.17;4.73;;;;;;;-3.12;100.00;96319.69;5071801;28;20051;-70
2021/12/25 07:37:23;;;;;;;11.63;4.80;;;;;;;-2.97;100.00;96339.72;5069644;28;20044;-73
2021/12/25 07:39:50;;;;;;;9.70;4.90;;;;;;;-2.82;100.00;96327.94;5070116;28;20056;-73
2021/12/25 07:42:17;;;;;;;7.30;3.80;;;;;;;-2.79;100.00;96349.22;5070445;28;20124;-72
2021/12/25 07:45:20;;;;;;;10.40;5.63;;;;;;;-2.94;100.00;96344.72;5027964;28;20506;-71
2021/12/25 07:47:55;;;;;;;13.97;5.97;;;;;;;-2.82;100.00;96358.84;5057025;28;20535;-71
2021/12/25 07:50:22;;;;;;;11.87;5.40;;;;;;;-2.77;100.00;96372.34;5070508;28;20524;-77
2021/12/25 07:52:49;;;;;;;12.43;5.50;;;;;;;-2.72;100.00;96374.75;5071245;28;20135;-75
2021/12/25 07:55:16;;;;;;;10.30;6.30;;;;;;;-2.64;100.00;96383.84;5069687;28;20056;-74
2021/12/25 07:57:43;;;;;;;7.00;3.77;;;;;;;-2.53;100.00;96389.41;5069600;28;20123;-70
2021/12/25 08:00:12;;;;;;;13.23;5.70;;;;;;;-2.45;100.00;96387.34;5068676;28;20044;-70
2021/12/25 08:02:41;;;;;;;9.90;5.40;;;;;;;-2.52;100.00;96393.66;5068704;28;20052;-66
2021/12/25 08:05:09;;;;;;;15.57;6.57;;;;;;;-2.38;100.00;96409.38;5066610;28;20764;-66
2021/12/25 08:07:36;;;;;;;11.27;6.33;;;;;;;-2.39;100.00;96388.81;5069773;28;20102;-71
2021/12/25 08:10:13;;;;;;;12.53;6.20;;;;;;;-2.24;100.00;96383.88;5069559;28;20076;-71
2021/12/25 08:12:41;;;;;;;16.30;6.13;;;;;;;-2.13;100.00;96394.56;5068833;28;20056;-70
2021/12/25 08:15:12;;;;;;;12.87;5.87;;;;;;;-2.05;100.00;96397.66;5068991;28;20050;-70
2021/12/25 08:17:41;;;;;;;10.70;5.70;;;;;;;-2.05;100.00;96384.78;5068614;28;20048;-70
2021/12/25 08:20:26;;;;;;;11.93;6.40;;;;;;;-1.92;100.00;96391.06;5069276;28;20393;-70
2021/12/25 08:23:13;;;;;;;9.47;5.73;;;;;;;-1.93;100.00;96404.88;5047861;28;20084;-69
2021/12/25 08:25:59;;;;;;;11.33;6.23;;;;;;;-1.95;100.00;96396.38;5069258;28;20537;-69
2021/12/25 08:28:51;;;;;;;11.63;6.13;;;;;;;-2.15;100.00;96401.53;5070313;28;20052;-65
2021/12/25 08:31:37;;;;;;;9.80;5.50;;;;;;;-2.23;100.00;96415.63;5069407;28;20040;-64
2021/12/25 08:34:28;;;;;;;10.43;5.23;;;;;;;-2.31;100.00;96403.06;5067925;28;20555;-65
2021/12/25 08:37:12;;;;;;;11.17;4.87;;;;;;;-2.33;100.00;96407.44;5068466;28;20496;-65
2021/12/25 08:39:39;;;;;;;9.83;5.20;;;;;;;-2.33;100.00;96394.56;5068801;28;20109;-66
2021/12/25 08:42:08;;;;;;;10.10;6.13;;;;;;;-2.45;100.00;96420.84;5070195;28;20056;-67
2021/12/25 08:44:41;;;;;;;13.77;6.10;;;;;;;-2.37;100.00;96426.50;5069508;28;20473;-71
2021/12/25 08:47:11;;;;;;;12.27;5.68;;;;;;;-2.37;100.00;96416.19;5069700;28;20040;-71
2021/12/25 08:49:41;;;;;;;9.80;4.37;;;;;;;-2.41;100.00;96409.50;5069055;28;20048;-70
2021/12/25 08:52:11;;;;;;;15.00;5.23;;;;;;;-2.53;100.00;96416.88;5067775;28;20055;-70
2021/12/25 08:54:39;;;;;;;11.30;4.67;;;;;;;-2.60;100.00;96420.59;5068866;28;20051;-71
2021/12/25 08:57:08;;;;;;;8.77;4.83;;;;;;;-2.35;100.00;96422.16;5069503;28;20040;-70
2021/12/25 08:59:36;;;;;;;12.57;6.60;;;;;;;-2.22;100.00;96431.03;5070187;28;20436;-71
2021/12/25 09:02:09;;;;;;;13.63;7.13;;;;;;;-2.18;100.00;96440.31;5069866;28;20044;-71
2021/12/25 09:04:36;;;;;;;16.08;7.97;;;;;;;-2.20;100.00;96434.41;5068651;28;20489;-72
2021/12/25 09:07:05;;;;;;;13.57;6.17;;;;;;;-2.19;100.00;96437.78;5069190;28;20049;-71
2021/12/25 09:09:33;;;;;;;13.47;6.53;;;;;;;-2.10;100.00;96438.28;5069745;28;20042;-71
2021/12/25 09:12:00;;;;;;;12.50;6.97;;;;;;;-1.96;100.00;96440.28;5070915;28;20040;-71
2021/12/25 09:14:27;;;;;;;11.40;5.43;;;;;;;-2.11;100.00;96446.06;5073562;28;20540;-70
2021/12/25 09:16:54;;;;;;;15.00;6.93;;;;;;;-2.28;100.00;96435.59;5073465;28;20048;-72
2021/12/25 09:19:21;;;;;;;15.83;6.53;;;;;;;-2.35;100.00;96444.50;5073037;28;20821;-71
2021/12/25 09:21:48;;;;;;;10.83;5.40;;;;;;;-2.43;100.00;96454.28;5055567;28;20045;-71
2021/12/25 09:24:16;;;;;;;12.13;6.37;;;;;;;-2.38;100.00;96458.34;5072282;28;20047;-70
2021/12/25 09:26:43;;;;;;;11.70;5.53;;;;;;;-2.33;100.00;96445.28;5073662;28;20577;-71
2021/12/25 09:29:10;;;;;;;13.90;6.67;;;;;;;-2.50;100.00;96458.84;5071387;28;20485;-71
2021/12/25 09:31:37;;;;;;;14.13;5.93;;;;;;;-2.42;100.00;96463.69;5071578;28;20064;-71
2021/12/25 09:34:04;;;;;;;18.13;6.50;;;;;;;-2.46;100.00;96462.97;5072817;28;20497;-71
2021/12/25 09:36:34;;;;;;;15.80;6.20;;;;;;;-2.54;100.00;96459.03;5072994;28;20421;-71
2021/12/25 09:39:02;;;;;;;8.80;5.60;;;;;;;-2.36;100.00;96453.13;5073452;28;20045;-70
2021/12/25 09:41:30;;;;;;;10.20;5.27;;;;;;;-2.42;100.00;96463.69;5071815;28;20043;-69
2021/12/25 09:43:57;;;;;;;11.00;5.33;;;;;;;-2.61;100.00;96486.78;5072044;28;20421;-69
2021/12/25 09:46:24;;;;;;;13.93;5.27;;;;;;;-2.66;100.00;96457.75;5071707;28;20404;-69
2021/12/25 09:48:51;;;;;;;10.53;4.63;;;;;;;-2.52;100.00;96481.25;5085223;28;20461;-71
2021/12/25 09:51:18;;;;;;;9.50;5.27;;;;;;;-2.49;100.00;96472.53;5072515;28;20064;-71
2021/12/25 09:53:56;;;;;;;9.33;4.50;;;;;;;-2.56;100.00;96468.53;5073531;28;20036;-71
2021/12/25 09:56:23;;;;;;;8.30;5.07;;;;;;;-2.74;100.00;96459.78;5072792;28;20052;-72
2021/12/25 09:58:51;;;;;;;10.30;4.17;;;;;;;-2.82;100.00;96469.56;5074764;28;20366;-72
2021/12/25 10:01:32;;;;;;;6.70;4.63;;;;;;;-2.77;100.00;96473.63;5074702;28;20041;-71
2021/12/25 10:04:00;;;;;;;10.33;4.07;;;;;;;-2.71;100.00;96472.56;5072034;28;20051;-73
2021/12/25 10:06:32;;;;;;;9.57;4.30;;;;;;;-2.75;100.00;96484.69;5072770;28;20054;-72
2021/12/25 10:09:12;;;;;;;9.33;4.87;;;;;;;-2.76;100.00;96477.88;5074276;28;20036;-74
2021/12/25 10:11:39;;;;;;;9.00;4.33;;;;;;;-2.73;100.00;96482.06;5073957;28;20123;-74
2021/12/25 10:14:07;;;;;;;11.00;5.10;;;;;;;-2.68;100.00;96487.06;5074918;28;20040;-75
2021/12/25 10:16:34;;;;;;;15.73;6.17;;;;;;;-2.46;100.00;96477.56;5073121;28;20055;-69
2021/12/25 10:19:15;;;;;;;8.47;5.20;;;;;;;-2.60;100.00;96469.56;5071987;28;20551;-75
2021/12/25 10:21:42;;;;;;;11.80;6.00;;;;;;;-2.72;100.00;96489.75;5070538;28;20923;-73
2021/12/25 10:24:13;;;;;;;11.00;5.50;;;;;;;-2.47;100.00;96499.91;5071312;28;20040;-74
2021/12/25 10:26:42;;;;;;;13.13;5.90;;;;;;;-2.23;100.00;96498.09;5070722;28;20083;-76
2021/12/25 10:29:19;;;;;;;10.03;5.30;;;;;;;-2.37;100.00;96501.25;5072160;28;20140;-74
2021/12/25 10:31:46;;;;;;;9.20;5.20;;;;;;;-2.39;100.00;96492.75;5071245;28;20047;-77
2021/12/25 10:34:14;;;;;;;13.10;5.80;;;;;;;-2.34;100.00;96495.97;5071256;28;20492;-74
2021/12/25 10:36:41;;;;;;;8.83;5.00;;;;;;;-2.38;100.00;96497.00;5072113;28;20041;-68
2021/12/25 10:39:11;;;;;;;9.13;5.70;;;;;;;-2.36;100.00;96502.09;5071856;28;20044;-68
2021/12/25 10:41:40;;;;;;;15.30;8.63;;;;;;;-2.31;100.00;96506.16;5071423;28;20036;-69
2021/12/25 10:44:14;;;;;;;7.27;4.50;;;;;;;-2.37;100.00;96508.16;5071450;28;20052;-69
2021/12/25 10:46:52;;;;;;;7.83;3.50;;;;;;;-2.55;98.93;96507.13;5071009;28;20493;-69
2021/12/25 10:49:19;;;;;;;7.03;3.83;;;;;;;-2.77;97.62;96509.69;5070152;28;20055;-69
2021/12/25 10:51:47;;;;;;;7.27;4.27;;;;;;;-2.72;98.24;96519.81;5071234;28;20465;-69
2021/12/25 10:54:15;;;;;;;6.70;4.00;;;;;;;-2.61;99.03;96529.72;5071829;28;20059;-68
2021/12/25 10:56:45;;;;;;;7.23;4.17;;;;;;;-2.44;98.83;96525.56;5072110;28;20057;-69
2021/12/25 10:59:14;;;;;;;7.80;4.07;;;;;;;-2.79;96.59;96518.38;5071333;28;20066;-68
2021/12/25 11:01:44;;;;;;;6.73;3.80;;;;;;;-2.85;98.00;96528.91;5071185;28;20131;-69
2021/12/25 11:04:30;;;;;;;7.73;3.97;;;;;;;-2.97;97.00;96522.50;5071225;28;20044;-69
2021/12/25 11:06:59;;;;;;;7.20;3.53;;;;;;;-3.01;97.49;96512.34;5071257;28;20040;-69
2021/12/25 11:09:26;;;;;;;4.87;3.20;;;;;;;-2.95;97.71;96528.41;5071467;28;20060;-69
2021/12/25 11:12:16;;;;;;;7.87;3.67;;;;;;;-3.08;97.63;96516.06;5070904;28;20046;-72
2021/12/25 11:14:43;;;;;;;5.63;3.83;;;;;;;-3.16;98.35;96525.78;5070906;28;20044;-73
2021/12/25 11:17:25;;;;;;;6.30;3.87;;;;;;;-3.31;97.88;96531.50;5072217;28;20040;-71
2021/12/25 11:20:00;;;;;;;7.13;4.20;;;;;;;-3.16;99.15;96538.66;5073676;28;20539;-74
2021/12/25 11:22:28;;;;;;;9.33;3.87;;;;;;;-3.09;99.30;96534.97;5073597;28;20094;-73
2021/12/25 11:24:58;;;;;;;8.03;4.20;;;;;;;-3.11;99.30;96536.75;5073469;28;20037;-74
2021/12/25 11:27:25;;;;;;;7.80;4.33;;;;;;;-2.83;99.47;96542.56;5073481;28;20124;-73
2021/12/25 11:29:52;;;;;;;7.10;4.53;;;;;;;-2.81;99.08;96543.34;5073215;28;20044;-73
2021/12/25 11:32:21;;;;;;;8.67;4.70;;;;;;;-2.94;98.62;96537.81;5071983;28;20047;-73
2021/12/25 11:34:50;;;;;;;10.33;4.87;;;;;;;-2.91;98.97;96544.59;5073000;28;20133;-74
2021/12/25 11:37:19;;;;;;;9.00;4.80;;;;;;;-2.87;99.02;96518.66;5071501;28;20049;-74
2021/12/25 11:39:52;;;;;;;10.67;5.70;;;;;;;-2.81;98.85;96523.59;5072975;28;20131;-72
2021/12/25 11:42:19;;;;;;;10.00;4.93;;;;;;;-2.64;98.49;96524.66;5072901;28;20040;-73
2021/12/25 11:44:51;;;;;;;9.57;5.53;;;;;;;-2.52;98.68;96517.31;5073164;28;20486;-72
2021/12/25 11:47:36;;;;;;;9.80;5.13;;;;;;;-2.53;98.38;96528.53;5073204;28;20451;-74
2021/12/25 11:50:08;;;;;;;5.60;3.00;;;;;;;-2.88;93.97;96519.56;5072936;28;20057;-74
2021/12/25 11:52:43;;;;;;;5.93;3.67;;;;;;;-3.04;92.24;96530.47;5072914;28;20367;-73
2021/12/25 11:58:20;;;;;;;5.10;2.50;;;;;;;-3.22;89.92;96559.47;5036981;28;20106;-73
2021/12/25 12:00:49;;;;;;;4.00;2.23;;;;;;;-3.29;89.23;96547.69;5072734;28;20048;-73
2021/12/25 12:03:39;;;;;;;6.70;2.43;;;;;;;-3.50;88.58;96545.88;5073026;28;20573;-74
2021/12/25 12:06:07;;;;;;;3.70;2.50;;;;;;;-3.40;89.62;96545.50;5061464;28;20520;-74
2021/12/25 12:09:02;;;;;;;8.07;2.03;;;;;;;-3.39;88.06;96549.75;5072598;28;20036;-72
2021/12/25 12:11:49;;;;;;;3.93;2.57;;;;;;;-3.51;87.59;96549.34;5062667;28;20040;-72
2021/12/25 12:14:46;;;;;;;6.03;3.23;;;;;;;-3.56;87.23;96549.53;5066244;28;20052;-72
2021/12/25 12:17:36;;;;;;;6.30;2.17;;;;;;;-3.53;86.80;96559.69;5061893;28;20094;-73
2021/12/25 12:20:05;;;;;;;2.57;2.00;;;;;;;-3.43;87.78;96567.91;5068988;28;20119;-72
2021/12/25 12:23:06;;;;;;;4.17;1.90;;;;;;;-3.50;86.97;96563.88;5072862;28;20110;-72
2021/12/25 12:26:04;;;;;;;4.27;2.20;;;;;;;-3.55;87.22;96563.22;5073125;28;20090;-72
2021/12/25 12:28:46;;;;;;;4.27;2.13;;;;;;;-3.43;87.63;96570.50;5068100;28;20036;-73
2021/12/25 12:31:36;;;;;;;5.67;3.07;;;;;;;-3.56;87.13;96569.25;5073278;28;20055;-73
2021/12/25 12:34:31;;;;;;;6.30;3.67;;;;;;;-3.67;87.21;96573.91;5067468;28;20817;-73
2021/12/25 12:37:29;;;;;;;8.60;4.40;;;;;;;-3.49;87.91;96581.00;5070606;28;20598;-76
2021/12/25 12:40:23;;;;;;;6.83;3.70;;;;;;;-3.43;87.87;96598.78;5070566;28;20539;-76
2021/12/25 12:42:57;;;;;;;8.00;4.73;;;;;;;-3.41;87.81;96604.75;5070575;28;20538;-75
2021/12/25 12:45:25;;;;;;;;;;;;;;;-3.20;88.73;96604.81;5071732;28;20477;-70
2021/12/25 12:48:14;;;;;;;8.87;3.47;;;;;;;-3.29;87.73;96607.72;5072185;28;19924;-72
2021/12/25 12:50:43;;;;;;;7.60;3.47;;;;;;;-3.24;87.91;96608.41;5071348;28;20243;-72
2021/12/25 12:53:10;;;;;;;9.73;4.10;;;;;;;-3.21;87.15;96604.88;5074020;28;20123;-70
2021/12/25 12:55:40;;;;;;;6.97;3.73;;;;;;;-3.41;84.79;96597.03;5072685;28;20047;-70